Silverthorne, Colorado
Current Conditions -  °F | °C
As of 5:37 AM on Thursday 23 Oct 2014 (Local Time) from KCCU Reporting Station
Haze Haze  
Wind Chill: 23°   Ceiling: Unl
Heat Index: 34°   Visibility: 5mi
Dew Point: 25°   Wind: 17mph
Humidity: 70%   Direction: 270°W
Pressure: 30.45"   Gusts: 25mph
Location:  39.65°N, 106.08°W
Report Text: KCCU 231137Z AUTO 27015G22KT 5SM HZ CLR 01/M04 A3045 RMK AO2
Loading
Personal Weather Stations






























Interactive Weather Map New forecast layout! Learn more

10-Day Weather Forecast

Advertisements
Track Severe Weather on mobile